sensor_id;sensor_type;location;lat;lon;timestamp;pressure;altitude;pressure_sealevel;temperature;humidity
14882;BME280;7533;51.278;12.588;2024-03-22T00:01:55;100720.63;;;25.51;53.49
14882;BME280;7533;51.278;12.588;2024-03-22T00:06:57;100713.63;;;25.38;53.36
14882;BME280;7533;51.278;12.588;2024-03-22T00:12:00;100717.31;;;25.25;54.14
14882;BME280;7533;51.278;12.588;2024-03-22T00:17:02;100713.72;;;25.36;53.84
14882;BME280;7533;51.278;12.588;2024-03-22T00:22:04;100716.31;;;25.26;54.00
14882;BME280;7533;51.278;12.588;2024-03-22T00:27:07;100720.59;;;25.18;54.40
14882;BME280;7533;51.278;12.588;2024-03-22T00:32:09;100710.50;;;25.09;54.75
14882;BME280;7533;51.278;12.588;2024-03-22T00:37:11;100702.19;;;24.99;54.90
14882;BME280;7533;51.278;12.588;2024-03-22T00:42:14;100702.75;;;24.91;55.09
14882;BME280;7533;51.278;12.588;2024-03-22T00:47:16;100693.50;;;24.83;55.50
14882;BME280;7533;51.278;12.588;2024-03-22T00:52:19;100692.34;;;24.74;55.61
14882;BME280;7533;51.278;12.588;2024-03-22T00:57:22;100685.56;;;24.68;55.47
14882;BME280;7533;51.278;12.588;2024-03-22T01:02:24;100683.34;;;24.62;55.57
14882;BME280;7533;51.278;12.588;2024-03-22T01:07:26;100683.94;;;24.54;56.04
14882;BME280;7533;51.278;12.588;2024-03-22T01:12:30;100659.06;;;24.49;55.86
14882;BME280;7533;51.278;12.588;2024-03-22T01:17:31;100657.47;;;24.47;56.10
14882;BME280;7533;51.278;12.588;2024-03-22T01:22:33;100644.63;;;24.38;56.23
14882;BME280;7533;51.278;12.588;2024-03-22T01:27:37;100650.59;;;24.30;56.47
14882;BME280;7533;51.278;12.588;2024-03-22T01:32:38;100639.25;;;24.25;56.57
14882;BME280;7533;51.278;12.588;2024-03-22T01:37:40;100628.91;;;24.19;56.92
14882;BME280;7533;51.278;12.588;2024-03-22T01:42:44;100626.63;;;24.13;57.01
14882;BME280;7533;51.278;12.588;2024-03-22T01:47:45;100618.91;;;24.08;56.87
14882;BME280;7533;51.278;12.588;2024-03-22T01:52:48;100611.25;;;24.02;57.22
14882;BME280;7533;51.278;12.588;2024-03-22T01:57:52;100601.75;;;23.96;57.38
14882;BME280;7533;51.278;12.588;2024-03-22T02:02:56;100589.44;;;23.92;57.31
14882;BME280;7533;51.278;12.588;2024-03-22T02:07:58;100590.75;;;23.87;57.58
14882;BME280;7533;51.278;12.588;2024-03-22T02:13:01;100582.13;;;23.82;57.60
14882;BME280;7533;51.278;12.588;2024-03-22T02:18:03;100572.50;;;23.78;57.70
14882;BME280;7533;51.278;12.588;2024-03-22T02:30:06;100572.31;;;23.68;58.04
14882;BME280;7533;51.278;12.588;2024-03-22T02:35:09;100564.47;;;23.65;58.14
14882;BME280;7533;51.278;12.588;2024-03-22T02:40:12;100557.34;;;23.64;57.95
14882;BME280;7533;51.278;12.588;2024-03-22T02:45:15;100551.38;;;23.59;58.17
14882;BME280;7533;51.278;12.588;2024-03-22T02:50:17;100551.59;;;23.56;58.45
14882;BME280;7533;51.278;12.588;2024-03-22T02:55:19;100556.38;;;23.52;58.53
14882;BME280;7533;51.278;12.588;2024-03-22T03:00:22;100535.84;;;23.49;58.60
14882;BME280;7533;51.278;12.588;2024-03-22T03:05:24;100534.22;;;23.47;58.43
14882;BME280;7533;51.278;12.588;2024-03-22T03:10:26;100528.19;;;23.43;58.68
14882;BME280;7533;51.278;12.588;2024-03-22T03:15:30;100525.59;;;23.42;58.74
14882;BME280;7533;51.278;12.588;2024-03-22T03:20:32;100525.81;;;23.39;58.81
14882;BME280;7533;51.278;12.588;2024-03-22T03:25:34;100519.78;;;23.35;58.80
14882;BME280;7533;51.278;12.588;2024-03-22T03:30:37;100506.38;;;23.34;58.88
14882;BME280;7533;51.278;12.588;2024-03-22T03:35:39;100508.34;;;23.32;58.94
14882;BME280;7533;51.278;12.588;2024-03-22T03:40:41;100505.00;;;23.28;58.83
14882;BME280;7533;51.278;12.588;2024-03-22T03:45:45;100500.69;;;23.26;59.13
14882;BME280;7533;51.278;12.588;2024-03-22T03:50:52;100487.19;;;23.26;59.12
14882;BME280;7533;51.278;12.588;2024-03-22T03:55:54;100489.16;;;23.23;59.15
14882;BME280;7533;51.278;12.588;2024-03-22T04:00:57;100478.44;;;23.22;59.26
14882;BME280;7533;51.278;12.588;2024-03-22T04:05:59;100475.88;;;23.20;59.32
14882;BME280;7533;51.278;12.588;2024-03-22T04:11:02;100466.25;;;23.16;59.33
14882;BME280;7533;51.278;12.588;2024-03-22T04:16:05;100460.00;;;23.16;59.43
14882;BME280;7533;51.278;12.588;2024-03-22T04:21:07;100460.84;;;23.16;59.47
14882;BME280;7533;51.278;12.588;2024-03-22T04:26:10;100446.50;;;23.16;59.58
14882;BME280;7533;51.278;12.588;2024-03-22T04:31:14;100446.38;;;23.17;59.42
14882;BME280;7533;51.278;12.588;2024-03-22T04:36:16;100432.00;;;23.17;59.32
14882;BME280;7533;51.278;12.588;2024-03-22T04:41:18;100429.69;;;23.12;59.31
14882;BME280;7533;51.278;12.588;2024-03-22T04:46:21;100432.72;;;23.08;59.39
14882;BME280;7533;51.278;12.588;2024-03-22T04:51:23;100425.81;;;23.04;59.39
14882;BME280;7533;51.278;12.588;2024-03-22T04:56:25;100422.25;;;23.03;59.29
14882;BME280;7533;51.278;12.588;2024-03-22T05:01:28;100410.47;;;23.04;59.31
14882;BME280;7533;51.278;12.588;2024-03-22T05:06:30;100407.66;;;23.06;59.09
14882;BME280;7533;51.278;12.588;2024-03-22T05:11:32;100398.16;;;23.00;59.30
14882;BME280;7533;51.278;12.588;2024-03-22T05:16:35;100400.13;;;22.98;59.16
14882;BME280;7533;51.278;12.588;2024-03-22T05:21:37;100393.88;;;22.98;59.10
14882;BME280;7533;51.278;12.588;2024-03-22T05:26:39;100387.63;;;22.97;59.20
14882;BME280;7533;51.278;12.588;2024-03-22T05:31:47;100381.56;;;22.93;59.15
14882;BME280;7533;51.278;12.588;2024-03-22T05:36:51;100385.25;;;22.92;59.08
14882;BME280;7533;51.278;12.588;2024-03-22T05:41:53;100375.19;;;22.94;59.03
14882;BME280;7533;51.278;12.588;2024-03-22T05:46:57;100378.34;;;22.88;59.09
14882;BME280;7533;51.278;12.588;2024-03-22T05:51:59;100367.63;;;22.87;59.26
14882;BME280;7533;51.278;12.588;2024-03-22T05:57:00;100382.66;;;22.91;59.01
14882;BME280;7533;51.278;12.588;2024-03-22T06:02:04;100364.84;;;22.88;59.16
14882;BME280;7533;51.278;12.588;2024-03-22T06:07:06;100372.09;;;22.88;59.09
14882;BME280;7533;51.278;12.588;2024-03-22T06:12:08;100367.53;;;22.88;59.09
14882;BME280;7533;51.278;12.588;2024-03-22T06:17:12;100371.22;;;22.87;58.96
14882;BME280;7533;51.278;12.588;2024-03-22T06:22:14;100364.00;;;22.88;58.92
14882;BME280;7533;51.278;12.588;2024-03-22T06:27:16;100352.22;;;22.89;58.93
14882;BME280;7533;51.278;12.588;2024-03-22T06:32:19;100348.00;;;22.85;59.07
14882;BME280;7533;51.278;12.588;2024-03-22T06:37:21;100346.59;;;22.92;58.89
14882;BME280;7533;51.278;12.588;2024-03-22T06:42:23;100341.63;;;22.86;58.93
14882;BME280;7533;51.278;12.588;2024-03-22T06:47:28;100337.78;;;22.90;58.71
14882;BME280;7533;51.278;12.588;2024-03-22T06:52:30;100331.38;;;22.91;58.80
14882;BME280;7533;51.278;12.588;2024-03-22T06:57:32;100325.34;;;22.87;58.80
14882;BME280;7533;51.278;12.588;2024-03-22T07:02:36;100323.38;;;22.89;58.86
14882;BME280;7533;51.278;12.588;2024-03-22T07:07:38;100316.06;;;22.91;58.65
14882;BME280;7533;51.278;12.588;2024-03-22T07:12:39;100321.44;;;22.91;58.68
14882;BME280;7533;51.278;12.588;2024-03-22T07:17:43;100308.94;;;22.90;58.69
14882;BME280;7533;51.278;12.588;2024-03-22T07:22:45;100303.41;;;22.92;58.56
14882;BME280;7533;51.278;12.588;2024-03-22T07:27:47;100300.72;;;22.92;58.68
14882;BME280;7533;51.278;12.588;2024-03-22T07:32:51;100297.91;;;22.93;58.57
14882;BME280;7533;51.278;12.588;2024-03-22T07:37:53;100301.56;;;22.92;58.59
14882;BME280;7533;51.278;12.588;2024-03-22T07:42:55;100299.72;;;22.93;58.50
14882;BME280;7533;51.278;12.588;2024-03-22T07:47:58;100285.38;;;22.92;58.60
14882;BME280;7533;51.278;12.588;2024-03-22T07:53:00;100289.91;;;22.92;58.59
14882;BME280;7533;51.278;12.588;2024-03-22T07:58:02;100310.41;;;22.94;58.38
14882;BME280;7533;51.278;12.588;2024-03-22T08:03:06;100310.88;;;22.52;51.76
14882;BME280;7533;51.278;12.588;2024-03-22T08:08:09;100301.97;;;21.49;48.40
14882;BME280;7533;51.278;12.588;2024-03-22T08:13:11;100289.09;;;21.67;48.31
14882;BME280;7533;51.278;12.588;2024-03-22T08:18:14;100295.06;;;21.32;48.44
14882;BME280;7533;51.278;12.588;2024-03-22T08:23:16;100296.50;;;20.71;48.79
14882;BME280;7533;51.278;12.588;2024-03-22T08:28:20;100290.00;;;20.88;49.30
14882;BME280;7533;51.278;12.588;2024-03-22T08:33:24;100281.66;;;21.18;50.16
14882;BME280;7533;51.278;12.588;2024-03-22T08:38:26;100281.34;;;21.23;50.89
14882;BME280;7533;51.278;12.588;2024-03-22T08:43:28;100267.28;;;21.32;51.72
14882;BME280;7533;51.278;12.588;2024-03-22T08:48:32;100261.06;;;21.44;52.42
14882;BME280;7533;51.278;12.588;2024-03-22T08:53:34;100259.22;;;21.57;53.54
14882;BME280;7533;51.278;12.588;2024-03-22T08:58:36;100256.53;;;21.70;54.09
14882;BME280;7533;51.278;12.588;2024-03-22T09:03:39;100252.09;;;21.82;54.77
14882;BME280;7533;51.278;12.588;2024-03-22T09:08:42;100231.28;;;21.97;54.56
14882;BME280;7533;51.278;12.588;2024-03-22T09:13:44;100236.34;;;22.01;55.16
14882;BME280;7533;51.278;12.588;2024-03-22T09:18:51;100224.06;;;22.10;55.01
14882;BME280;7533;51.278;12.588;2024-03-22T09:28:55;100205.91;;;22.25;54.92
14882;BME280;7533;51.278;12.588;2024-03-22T09:33:58;100188.28;;;22.32;54.60
14882;BME280;7533;51.278;12.588;2024-03-22T09:39:00;100192.25;;;22.39;54.86
14882;BME280;7533;51.278;12.588;2024-03-22T09:44:04;100196.44;;;22.43;54.74
14882;BME280;7533;51.278;12.588;2024-03-22T09:49:09;100182.75;;;22.46;54.88
14882;BME280;7533;51.278;12.588;2024-03-22T09:54:11;100177.94;;;22.50;54.99
14882;BME280;7533;51.278;12.588;2024-03-22T09:59:13;100173.31;;;22.52;55.09
14882;BME280;7533;51.278;12.588;2024-03-22T10:04:17;100172.09;;;22.56;55.20
14882;BME280;7533;51.278;12.588;2024-03-22T10:09:28;100160.09;;;22.60;55.14
14882;BME280;7533;51.278;12.588;2024-03-22T10:14:30;100150.16;;;22.60;55.22
14882;BME280;7533;51.278;12.588;2024-03-22T10:19:35;100146.41;;;22.63;55.29
14882;BME280;7533;51.278;12.588;2024-03-22T10:24:37;100147.97;;;22.65;55.56
14882;BME280;7533;51.278;12.588;2024-03-22T10:29:40;100140.75;;;22.66;55.67
14882;BME280;7533;51.278;12.588;2024-03-22T10:34:45;100133.28;;;22.69;55.64
14882;BME280;7533;51.278;12.588;2024-03-22T10:39:50;100123.34;;;22.70;55.79
14882;BME280;7533;51.278;12.588;2024-03-22T10:44:54;100115.13;;;22.71;55.86
14882;BME280;7533;51.278;12.588;2024-03-22T10:50:04;100122.25;;;22.73;55.95
14882;BME280;7533;51.278;12.588;2024-03-22T10:55:10;100106.06;;;22.73;56.11
14882;BME280;7533;51.278;12.588;2024-03-22T11:00:14;100101.41;;;22.75;56.33
14882;BME280;7533;51.278;12.588;2024-03-22T11:05:18;100091.50;;;22.75;56.39
14882;BME280;7533;51.278;12.588;2024-03-22T11:10:20;100083.25;;;22.77;56.56
14882;BME280;7533;51.278;12.588;2024-03-22T11:15:22;100072.34;;;22.78;56.46
14882;BME280;7533;51.278;12.588;2024-03-22T11:20:25;100071.38;;;22.79;56.82
14882;BME280;7533;51.278;12.588;2024-03-22T11:25:28;100052.13;;;22.84;56.81
14882;BME280;7533;51.278;12.588;2024-03-22T11:30:32;100055.25;;;22.90;57.16
14882;BME280;7533;51.278;12.588;2024-03-22T11:35:36;100048.00;;;22.91;57.90
14882;BME280;7533;51.278;12.588;2024-03-22T11:40:39;100047.88;;;22.92;58.14
14882;BME280;7533;51.278;12.588;2024-03-22T11:45:51;100035.09;;;22.94;58.25
14882;BME280;7533;51.278;12.588;2024-03-22T11:50:53;100019.53;;;22.98;58.18
14882;BME280;7533;51.278;12.588;2024-03-22T11:55:57;100018.31;;;23.02;58.11
14882;BME280;7533;51.278;12.588;2024-03-22T12:01:01;100011.94;;;23.03;58.11
14882;BME280;7533;51.278;12.588;2024-03-22T12:06:04;100001.13;;;23.03;58.12
14882;BME280;7533;51.278;12.588;2024-03-22T12:11:07;99990.06;;;23.06;58.01
14882;BME280;7533;51.278;12.588;2024-03-22T12:16:11;99991.06;;;23.05;58.06
14882;BME280;7533;51.278;12.588;2024-03-22T12:21:13;99974.78;;;23.07;58.16
14882;BME280;7533;51.278;12.588;2024-03-22T12:26:15;99970.94;;;23.09;58.28
14882;BME280;7533;51.278;12.588;2024-03-22T12:31:19;99965.31;;;23.12;58.22
14882;BME280;7533;51.278;12.588;2024-03-22T12:36:21;99960.63;;;23.14;58.31
14882;BME280;7533;51.278;12.588;2024-03-22T12:41:23;99945.28;;;23.15;58.36
14882;BME280;7533;51.278;12.588;2024-03-22T12:46:27;99939.38;;;23.21;58.22
14882;BME280;7533;51.278;12.588;2024-03-22T12:51:29;99928.44;;;23.22;58.16
14882;BME280;7533;51.278;12.588;2024-03-22T12:56:31;99912.72;;;23.28;58.16
14882;BME280;7533;51.278;12.588;2024-03-22T13:01:34;99915.78;;;23.34;57.94
14882;BME280;7533;51.278;12.588;2024-03-22T13:06:37;99901.78;;;23.40;57.73
14882;BME280;7533;51.278;12.588;2024-03-22T13:11:39;99904.22;;;23.43;57.80
14882;BME280;7533;51.278;12.588;2024-03-22T13:16:42;99889.72;;;23.44;57.90
14882;BME280;7533;51.278;12.588;2024-03-22T13:21:44;99882.47;;;23.45;57.92
14882;BME280;7533;51.278;12.588;2024-03-22T13:26:49;99884.66;;;23.51;57.73
14882;BME280;7533;51.278;12.588;2024-03-22T13:31:53;99874.78;;;23.61;57.24
14882;BME280;7533;51.278;12.588;2024-03-22T13:36:54;99868.31;;;23.64;57.24
14882;BME280;7533;51.278;12.588;2024-03-22T13:41:56;99847.63;;;23.74;57.03
14882;BME280;7533;51.278;12.588;2024-03-22T13:47:00;99845.72;;;23.86;56.85
14882;BME280;7533;51.278;12.588;2024-03-22T13:52:02;99835.22;;;23.92;56.75
14882;BME280;7533;51.278;12.588;2024-03-22T13:57:05;99828.75;;;23.84;56.97
14882;BME280;7533;51.278;12.588;2024-03-22T14:02:08;99818.53;;;24.08;56.42
14882;BME280;7533;51.278;12.588;2024-03-22T14:07:10;99826.34;;;24.11;56.71
14882;BME280;7533;51.278;12.588;2024-03-22T14:12:12;99822.00;;;24.20;56.61
14882;BME280;7533;51.278;12.588;2024-03-22T14:17:16;99822.81;;;24.11;56.71
14882;BME280;7533;51.278;12.588;2024-03-22T14:22:18;99814.84;;;24.09;56.47
14882;BME280;7533;51.278;12.588;2024-03-22T14:27:20;99818.00;;;24.14;56.47
14882;BME280;7533;51.278;12.588;2024-03-22T14:32:23;99806.19;;;24.15;56.28
14882;BME280;7533;51.278;12.588;2024-03-22T14:37:27;99804.47;;;24.14;56.57
14882;BME280;7533;51.278;12.588;2024-03-22T14:42:29;99797.94;;;24.17;56.35
14882;BME280;7533;51.278;12.588;2024-03-22T14:47:32;99793.38;;;24.17;56.42
14882;BME280;7533;51.278;12.588;2024-03-22T14:52:34;99792.38;;;24.18;56.21
14882;BME280;7533;51.278;12.588;2024-03-22T14:57:36;99789.25;;;24.13;56.38
14882;BME280;7533;51.278;12.588;2024-03-22T15:02:40;99790.31;;;24.01;56.39
14882;BME280;7533;51.278;12.588;2024-03-22T15:07:42;99783.03;;;24.01;56.65
14882;BME280;7533;51.278;12.588;2024-03-22T15:12:44;99791.44;;;23.98;56.78
14882;BME280;7533;51.278;12.588;2024-03-22T15:17:47;99782.72;;;23.95;57.03
14882;BME280;7533;51.278;12.588;2024-03-22T15:22:49;99777.47;;;23.93;57.36
14882;BME280;7533;51.278;12.588;2024-03-22T15:27:51;99760.81;;;23.88;57.34
14882;BME280;7533;51.278;12.588;2024-03-22T15:32:54;99752.53;;;23.80;57.81
14882;BME280;7533;51.278;12.588;2024-03-22T15:37:57;99749.38;;;23.75;58.05
14882;BME280;7533;51.278;12.588;2024-03-22T15:42:59;99742.38;;;23.72;58.09
14882;BME280;7533;51.278;12.588;2024-03-22T15:48:03;99747.06;;;23.70;58.17
14882;BME280;7533;51.278;12.588;2024-03-22T15:53:06;99729.44;;;23.76;58.15
14882;BME280;7533;51.278;12.588;2024-03-22T15:58:09;99736.84;;;23.74;58.21
14882;BME280;7533;51.278;12.588;2024-03-22T16:03:12;99734.53;;;23.69;58.40
14882;BME280;7533;51.278;12.588;2024-03-22T16:08:14;99737.50;;;23.66;58.56
14882;BME280;7533;51.278;12.588;2024-03-22T16:13:16;99730.38;;;23.65;58.59
14882;BME280;7533;51.278;12.588;2024-03-22T16:18:20;99729.53;;;23.65;58.58
14882;BME280;7533;51.278;12.588;2024-03-22T16:23:22;99723.28;;;23.64;58.87
14882;BME280;7533;51.278;12.588;2024-03-22T16:28:24;99719.94;;;23.61;58.95
14882;BME280;7533;51.278;12.588;2024-03-22T16:33:28;99730.91;;;23.59;59.14
14882;BME280;7533;51.278;12.588;2024-03-22T16:38:31;99727.47;;;23.57;59.09
14882;BME280;7533;51.278;12.588;2024-03-22T16:43:33;99722.09;;;23.57;59.37
14882;BME280;7533;51.278;12.588;2024-03-22T16:48:36;99721.34;;;23.55;59.42
14882;BME280;7533;51.278;12.588;2024-03-22T16:53:39;99715.22;;;23.53;59.41
14882;BME280;7533;51.278;12.588;2024-03-22T16:58:41;99716.22;;;23.52;59.64
14882;BME280;7533;51.278;12.588;2024-03-22T17:03:44;99716.47;;;23.49;59.71
14882;BME280;7533;51.278;12.588;2024-03-22T17:08:46;99717.06;;;23.53;60.75
14882;BME280;7533;51.278;12.588;2024-03-22T17:13:48;99720.78;;;23.52;60.96
14882;BME280;7533;51.278;12.588;2024-03-22T17:18:51;99707.56;;;23.58;60.61
14882;BME280;7533;51.278;12.588;2024-03-22T17:23:54;99703.97;;;23.48;60.82
14882;BME280;7533;51.278;12.588;2024-03-22T17:28:56;99690.72;;;23.45;60.71
14882;BME280;7533;51.278;12.588;2024-03-22T17:33:59;99688.00;;;23.45;60.64
14882;BME280;7533;51.278;12.588;2024-03-22T17:39:02;99685.31;;;23.45;60.56
14882;BME280;7533;51.278;12.588;2024-03-22T17:44:05;99682.88;;;23.42;60.48
14882;BME280;7533;51.278;12.588;2024-03-22T17:49:08;99676.63;;;23.41;60.26
14882;BME280;7533;51.278;12.588;2024-03-22T17:54:10;99683.88;;;23.41;60.52
14882;BME280;7533;51.278;12.588;2024-03-22T17:59:12;99684.84;;;23.40;60.52
14882;BME280;7533;51.278;12.588;2024-03-22T18:04:15;99648.03;;;23.39;60.45
14882;BME280;7533;51.278;12.588;2024-03-22T18:09:17;99635.69;;;23.36;60.52
14882;BME280;7533;51.278;12.588;2024-03-22T18:14:19;99626.72;;;23.36;60.46
14882;BME280;7533;51.278;12.588;2024-03-22T18:19:24;99625.88;;;23.35;60.65
14882;BME280;7533;51.278;12.588;2024-03-22T18:24:26;99634.94;;;23.34;60.61
14882;BME280;7533;51.278;12.588;2024-03-22T18:29:28;99636.78;;;23.34;60.49
14882;BME280;7533;51.278;12.588;2024-03-22T18:34:31;99642.19;;;23.34;60.52
14882;BME280;7533;51.278;12.588;2024-03-22T18:39:34;99631.53;;;23.32;60.51
14882;BME280;7533;51.278;12.588;2024-03-22T18:44:36;99632.53;;;23.31;60.66
14882;BME280;7533;51.278;12.588;2024-03-22T18:49:42;99621.72;;;23.31;60.58
14882;BME280;7533;51.278;12.588;2024-03-22T18:54:49;99620.00;;;23.30;60.59
14882;BME280;7533;51.278;12.588;2024-03-22T18:59:56;99624.56;;;23.30;60.70
14882;BME280;7533;51.278;12.588;2024-03-22T19:05:00;99609.59;;;23.26;60.82
14882;BME280;7533;51.278;12.588;2024-03-22T19:10:02;99612.16;;;23.27;60.78
14882;BME280;7533;51.278;12.588;2024-03-22T19:15:05;99608.63;;;23.27;60.82
14882;BME280;7533;51.278;12.588;2024-03-22T19:20:11;99597.81;;;23.27;60.80
14882;BME280;7533;51.278;12.588;2024-03-22T19:25:14;99595.97;;;23.27;60.81
14882;BME280;7533;51.278;12.588;2024-03-22T19:30:16;99594.25;;;23.26;60.82
14882;BME280;7533;51.278;12.588;2024-03-22T19:35:25;99579.75;;;23.27;60.78
14882;BME280;7533;51.278;12.588;2024-03-22T19:40:27;99575.38;;;23.26;60.83
14882;BME280;7533;51.278;12.588;2024-03-22T19:45:29;99564.72;;;23.25;60.94
14882;BME280;7533;51.278;12.588;2024-03-22T19:50:33;99563.41;;;23.29;60.79
14882;BME280;7533;51.278;12.588;2024-03-22T19:55:34;99554.91;;;23.23;60.95
14882;BME280;7533;51.278;12.588;2024-03-22T20:00:36;99556.00;;;23.21;60.84
14882;BME280;7533;51.278;12.588;2024-03-22T20:05:39;99542.38;;;23.22;60.82
14882;BME280;7533;51.278;12.588;2024-03-22T20:10:41;99538.72;;;23.23;60.77
14882;BME280;7533;51.278;12.588;2024-03-22T20:15:43;99532.41;;;23.23;60.83
14882;BME280;7533;51.278;12.588;2024-03-22T20:20:47;99531.56;;;23.22;60.87
14882;BME280;7533;51.278;12.588;2024-03-22T20:25:49;99524.47;;;23.21;60.83
14882;BME280;7533;51.278;12.588;2024-03-22T20:30:50;99523.47;;;23.22;60.70
14882;BME280;7533;51.278;12.588;2024-03-22T20:35:54;99517.38;;;23.20;60.84
